BAW15A EGLL-WSSS
Flight info
| Callsign | BAW15A |
|---|---|
| Flight time | N/A |
| Altitude | 33000 |
| Route | DET L6 DVR L9 KONAN UL607 FERDI DCT MATUG DCT GUBAX DCT KOMIB L984 SULUS Z650 VEMUT DCT DITIS/N0494F350 DCT ERGOM DCT BUDOP DCT UDROS UM859 KARDE UL851 TBN UR317 REBLO M11 LUSAL N199 BAKUV N701 LARGI B701 KRS A240 KESEK/N0500F370 A240 INRAK B449 DOLOS B475 RUBAD A846 RANAH L750 ZB G202 RK P628 IBANI L510 PATKA/N0496F390 L510 GIVAL P628 VPL Y503 RINBA Y507 MAKNA Y511 TOPOR A464 ARAMA DCT TEBUN TEBUN1A |
| Aircraft | B789/H-SDE1E2E3FGHIJ2J3J4J5M1RWXY/LB1D1 |
Departure
| Time | 2026-04-30 14:15 |
|---|---|
| Airport | London Heathrow Airport (EGLL) |
Arrival
| Time | N/A |
|---|---|
| Airport | Singapore Changi Airport (WSSS) |
| Time | Latitude | Longitude | Altitude | Speed | Heading |
|---|---|---|---|---|---|
| 2026-04-30 13:41 | 51.47123 | -0.47717 | 95 ft | 0 kts | 90° |
| 2026-04-30 13:42 | 51.46983 | -0.47716 | 94 ft | 0 kts | 90° |
| 2026-04-30 14:05 | 51.46983 | -0.47742 | 94 ft | 4 kts | 90° |
| 2026-04-30 14:05 | 51.46983 | -0.47785 | 93 ft | 4 kts | 90° |
| 2026-04-30 14:05 | 51.46983 | -0.47825 | 93 ft | 2 kts | 90° |
| 2026-04-30 14:05 | 51.46984 | -0.47855 | 93 ft | 4 kts | 121° |
| 2026-04-30 14:06 | 51.46995 | -0.47871 | 92 ft | 4 kts | 174° |
| 2026-04-30 14:06 | 51.47035 | -0.47873 | 92 ft | 0 kts | 180° |
| 2026-04-30 14:10 | 51.47030 | -0.47873 | 92 ft | 2 kts | 180° |
| 2026-04-30 14:10 | 51.47006 | -0.47872 | 92 ft | 5 kts | 180° |
| 2026-04-30 14:10 | 51.46959 | -0.47872 | 93 ft | 7 kts | 180° |
| 2026-04-30 14:11 | 51.46908 | -0.47872 | 92 ft | 7 kts | 180° |
| 2026-04-30 14:11 | 51.46856 | -0.47871 | 92 ft | 7 kts | 179° |
| 2026-04-30 14:11 | 51.46798 | -0.47871 | 92 ft | 9 kts | 180° |
| 2026-04-30 14:11 | 51.46731 | -0.47870 | 92 ft | 10 kts | 179° |
| 2026-04-30 14:12 | 51.46667 | -0.47894 | 93 ft | 8 kts | 229° |
| 2026-04-30 14:12 | 51.46653 | -0.47979 | 94 ft | 10 kts | 265° |
| 2026-04-30 14:12 | 51.46653 | -0.48111 | 92 ft | 13 kts | 270° |
| 2026-04-30 14:12 | 51.46653 | -0.48213 | 92 ft | 14 kts | 269° |
| 2026-04-30 14:13 | 51.46651 | -0.48436 | 92 ft | 16 kts | 269° |
| 2026-04-30 14:13 | 51.46651 | -0.48616 | 92 ft | 17 kts | 270° |
| 2026-04-30 14:13 | 51.46624 | -0.48753 | 96 ft | 11 kts | 210° |
| 2026-04-30 14:13 | 51.46550 | -0.48787 | 93 ft | 12 kts | 181° |
| 2026-04-30 14:14 | 51.46487 | -0.48733 | 94 ft | 9 kts | 121° |
| 2026-04-30 14:14 | 51.46478 | -0.48638 | 95 ft | 9 kts | 91° |
| 2026-04-30 14:14 | 51.46478 | -0.48459 | 94 ft | 28 kts | 90° |
| 2026-04-30 14:14 | 51.46480 | -0.47812 | 92 ft | 91 kts | 90° |
| 2026-04-30 14:15 | 51.46484 | -0.46463 | 97 ft | 149 kts | 89° |
| 2026-04-30 14:15 | 51.46481 | -0.44538 | 239 ft | 186 kts | 96° |
| 2026-04-30 14:15 | 51.46434 | -0.42502 | 1294 ft | 183 kts | 100° |
| 2026-04-30 14:15 | 51.45926 | -0.40625 | 2116 ft | 198 kts | 121° |
| 2026-04-30 14:16 | 51.45164 | -0.38697 | 2724 ft | 212 kts | 122° |
| 2026-04-30 14:16 | 51.44906 | -0.38056 | 2933 ft | 215 kts | 122° |
| 2026-04-30 14:16 | 51.44358 | -0.36482 | 3461 ft | 224 kts | 116° |
| 2026-04-30 14:17 | 51.43733 | -0.34127 | 4151 ft | 234 kts | 111° |
| 2026-04-30 14:17 | 51.43258 | -0.31657 | 5215 ft | 233 kts | 108° |
| 2026-04-30 14:17 | 51.42893 | -0.29070 | 5951 ft | 244 kts | 106° |
| 2026-04-30 14:17 | 51.42496 | -0.26323 | 5973 ft | 258 kts | 105° |
| 2026-04-30 14:18 | 51.42115 | -0.23516 | 6262 ft | 258 kts | 107° |
| 2026-04-30 14:18 | 51.41340 | -0.20970 | 6325 ft | 258 kts | 139° |
| 2026-04-30 14:18 | 51.38049 | -0.20155 | 6226 ft | 262 kts | 207° |
| 2026-04-30 14:19 | 51.36387 | -0.25319 | 6228 ft | 286 kts | 264° |
| 2026-04-30 14:19 | 51.36423 | -0.28511 | 6220 ft | 287 kts | 269° |
| 2026-04-30 14:19 | 51.36563 | -0.31709 | 6220 ft | 288 kts | 270° |
| 2026-04-30 14:20 | 51.36729 | -0.34903 | 6223 ft | 288 kts | 271° |
| 2026-04-30 14:20 | 51.36898 | -0.38095 | 6219 ft | 288 kts | 271° |
| 2026-04-30 14:20 | 51.37229 | -0.44219 | 6143 ft | 271 kts | 271° |
| 2026-04-30 14:21 | 51.37398 | -0.47217 | 6016 ft | 269 kts | 271° |
| 2026-04-30 14:21 | 51.37566 | -0.50191 | 5899 ft | 267 kts | 271° |
| 2026-04-30 14:21 | 51.37897 | -0.56059 | 5682 ft | 267 kts | 271° |
| 2026-04-30 14:22 | 51.38066 | -0.59014 | 5629 ft | 267 kts | 270° |